Time;durP1;ratioP1;P1;durP2;ratioP2;P2;SDS_P1;SDS_P2;PMS_P1;PMS_P2;Temp;Humidity;BMP_temperature;BMP_pressure;BME280_temperature;BME280_humidity;BME280_pressure;Samples;Min_cycle;Max_cycle;Signal;HPM_P1;HPM_P2
2022/08/14 00:01:51;;;;;;;11.27;6.47;;;;;;;;;;5089805;28;20297;-73
2022/08/14 00:04:19;;;;;;;11.77;6.07;;;;;;;;;;5089128;28;20197;-70
2022/08/14 00:06:47;;;;;;;8.43;6.07;;;;;;;;;;5093203;28;20217;-71
2022/08/14 00:09:14;;;;;;;9.67;6.30;;;;;;;;;;5086425;28;20674;-72
2022/08/14 00:11:41;;;;;;;9.83;6.47;;;;;;;;;;5087181;28;20290;-71
2022/08/14 00:14:08;;;;;;;10.30;6.27;;;;;;;;;;5088671;28;20317;-71
2022/08/14 00:16:36;;;;;;;13.03;6.93;;;;;;;;;;5087904;28;20202;-73
2022/08/14 00:19:04;;;;;;;9.10;6.73;;;;;;;;;;5084724;28;20202;-72
2022/08/14 00:21:32;;;;;;;9.57;7.23;;;;;;;;;;5090443;28;20214;-71
2022/08/14 00:24:00;;;;;;;11.60;7.03;;;;;;;;;;5087925;28;20209;-71
2022/08/14 00:26:27;;;;;;;9.77;6.93;;;;;;;;;;5085104;28;20201;-72
2022/08/14 00:28:54;;;;;;;9.47;6.40;;;;;;;;;;5087082;28;20197;-72
2022/08/14 00:31:22;;;;;;;9.20;6.47;;;;;;;;;;5083629;28;20274;-72
2022/08/14 00:33:49;;;;;;;9.20;6.33;;;;;;;;;;5093481;28;20273;-72
2022/08/14 00:36:16;;;;;;;9.93;7.30;;;;;;;;;;5092824;28;20206;-72
2022/08/14 00:38:45;;;;;;;13.80;6.87;;;;;;;;;;5088268;28;20289;-72
2022/08/14 00:41:12;;;;;;;10.53;6.70;;;;;;;;;;5085456;28;20202;-72
2022/08/14 00:43:40;;;;;;;11.43;7.10;;;;;;;;;;5085683;28;20233;-71
2022/08/14 00:46:08;;;;;;;12.33;6.77;;;;;;;;;;5088662;28;20265;-72
2022/08/14 00:48:35;;;;;;;8.63;7.03;;;;;;;;;;5087816;28;20244;-71
2022/08/14 00:51:03;;;;;;;11.37;6.77;;;;;;;;;;5082449;28;20198;-72
2022/08/14 00:53:30;;;;;;;9.50;6.90;;;;;;;;;;5085292;28;20229;-72
2022/08/14 00:55:59;;;;;;;14.97;7.63;;;;;;;;;;5088547;28;20199;-70
2022/08/14 00:58:32;;;;;;;12.27;6.93;;;;;;;;;;5088098;28;20218;-69
2022/08/14 01:01:02;;;;;;;9.73;7.13;;;;;;;;;;5086476;28;20290;-71
2022/08/14 01:03:29;;;;;;;12.70;6.93;;;;;;;;;;5091255;28;20228;-71
2022/08/14 01:05:57;;;;;;;14.77;8.10;;;;;;;;;;5084550;28;20285;-73
2022/08/14 01:08:25;;;;;;;14.47;7.63;;;;;;;;;;5085491;28;20218;-72
2022/08/14 01:10:54;;;;;;;8.00;6.63;;;;;;;;;;5082021;28;20201;-72
2022/08/14 01:13:23;;;;;;;14.00;6.80;;;;;;;;;;5082153;28;20663;-72
2022/08/14 01:15:51;;;;;;;9.60;7.40;;;;;;;;;;5083111;28;20217;-72
2022/08/14 01:21:15;;;;;;;9.27;6.70;;;;;;;;;;5050334;28;20266;-73
2022/08/14 01:23:45;;;;;;;10.23;7.43;;;;;;;;;;5084410;28;20194;-72
2022/08/14 01:26:14;;;;;;;11.40;7.40;;;;;;;;;;5085034;28;20648;-72
2022/08/14 01:28:42;;;;;;;14.20;7.80;;;;;;;;;;5083699;28;20226;-73
2022/08/14 01:31:11;;;;;;;11.03;7.47;;;;;;;;;;5079892;28;20202;-72
2022/08/14 01:33:39;;;;;;;12.70;7.90;;;;;;;;;;5083528;28;20194;-73
2022/08/14 01:36:07;;;;;;;13.00;7.90;;;;;;;;;;5080092;28;20224;-72
2022/08/14 01:38:34;;;;;;;12.00;8.07;;;;;;;;;;5082318;28;20227;-72
2022/08/14 01:41:03;;;;;;;9.50;7.20;;;;;;;;;;5082112;28;20287;-72
2022/08/14 01:43:37;;;;;;;10.23;7.77;;;;;;;;;;5085598;28;20209;-71
2022/08/14 01:46:05;;;;;;;14.70;7.83;;;;;;;;;;5080235;28;20571;-69
2022/08/14 01:48:33;;;;;;;10.97;8.47;;;;;;;;;;5082132;28;20226;-71
2022/08/14 01:51:01;;;;;;;12.43;8.93;;;;;;;;;;5083721;28;20284;-72
2022/08/14 01:53:30;;;;;;;10.73;8.03;;;;;;;;;;5080335;28;20205;-72
2022/08/14 01:55:58;;;;;;;11.40;7.90;;;;;;;;;;5079892;28;20230;-73
2022/08/14 01:58:28;;;;;;;10.90;8.00;;;;;;;;;;5080337;28;20611;-71
2022/08/14 02:00:55;;;;;;;10.80;7.70;;;;;;;;;;5081713;28;20815;-71
2022/08/14 02:03:23;;;;;;;14.63;7.83;;;;;;;;;;5087605;28;20205;-73
2022/08/14 02:05:50;;;;;;;12.57;8.07;;;;;;;;;;5085977;28;20194;-71
2022/08/14 02:08:17;;;;;;;9.33;7.47;;;;;;;;;;5086911;28;20229;-72
2022/08/14 02:11:15;;;;;;;15.80;8.60;;;;;;;;;;5085523;28;20205;-73
2022/08/14 02:13:33;;;;;;;13.93;8.60;;;;;;;;;;5086135;28;20198;-70
2022/08/14 02:16:00;;;;;;;13.50;8.27;;;;;;;;;;5083973;28;20752;-72
2022/08/14 02:18:29;;;;;;;12.37;8.80;;;;;;;;;;5084519;28;20312;-72
2022/08/14 02:20:57;;;;;;;10.70;7.90;;;;;;;;;;5087075;28;20670;-72
2022/08/14 02:23:25;;;;;;;11.50;7.80;;;;;;;;;;5087897;28;20209;-72
2022/08/14 02:25:52;;;;;;;13.57;8.87;;;;;;;;;;5085416;28;20198;-72
2022/08/14 02:28:19;;;;;;;11.03;8.47;;;;;;;;;;5086730;28;20226;-72
2022/08/14 02:30:48;;;;;;;11.40;8.53;;;;;;;;;;5083167;28;20212;-72
2022/08/14 02:33:15;;;;;;;13.30;8.87;;;;;;;;;;5083020;28;20246;-72
2022/08/14 02:35:42;;;;;;;11.63;8.40;;;;;;;;;;5083005;28;20218;-72
2022/08/14 02:38:10;;;;;;;12.80;8.90;;;;;;;;;;5083579;28;20218;-72
2022/08/14 02:40:37;;;;;;;13.60;8.63;;;;;;;;;;5082151;28;20289;-72
2022/08/14 02:43:05;;;;;;;17.73;9.13;;;;;;;;;;5082630;28;20549;-72
2022/08/14 02:45:33;;;;;;;13.00;8.80;;;;;;;;;;5087017;28;20205;-72
2022/08/14 02:48:02;;;;;;;12.50;9.07;;;;;;;;;;5082154;28;20853;-71
2022/08/14 02:50:29;;;;;;;13.33;9.17;;;;;;;;;;5084863;28;20583;-72
2022/08/14 02:52:56;;;;;;;18.50;9.73;;;;;;;;;;5082948;28;20202;-71
2022/08/14 02:55:23;;;;;;;13.20;9.00;;;;;;;;;;5086394;28;20225;-72
2022/08/14 02:57:51;;;;;;;14.17;9.37;;;;;;;;;;5081927;28;20226;-71
2022/08/14 03:00:21;;;;;;;14.57;9.33;;;;;;;;;;5087437;28;20209;-69
2022/08/14 03:02:49;;;;;;;13.70;8.33;;;;;;;;;;5089600;28;20206;-72
2022/08/14 03:05:19;;;;;;;15.20;8.87;;;;;;;;;;5090475;28;20220;-72
2022/08/14 03:07:46;;;;;;;12.90;9.60;;;;;;;;;;5090579;28;20221;-72
2022/08/14 03:10:13;;;;;;;12.70;8.97;;;;;;;;;;5089669;28;20265;-73
2022/08/14 03:12:41;;;;;;;12.03;8.90;;;;;;;;;;5086087;28;20660;-71
2022/08/14 03:15:12;;;;;;;14.73;9.00;;;;;;;;;;5085606;28;20708;-72
2022/08/14 03:17:41;;;;;;;13.83;9.77;;;;;;;;;;5085811;28;20218;-72
2022/08/14 03:20:09;;;;;;;12.83;9.33;;;;;;;;;;5089109;28;20293;-72
2022/08/14 03:22:38;;;;;;;19.10;11.00;;;;;;;;;;5091423;28;20204;-72
2022/08/14 03:25:07;;;;;;;14.07;9.73;;;;;;;;;;5089479;28;20317;-70
2022/08/14 03:27:34;;;;;;;15.20;9.73;;;;;;;;;;5090196;28;20252;-72
2022/08/14 03:30:03;;;;;;;15.80;9.60;;;;;;;;;;5092776;28;20281;-72
2022/08/14 03:32:32;;;;;;;16.40;10.47;;;;;;;;;;5088718;28;20202;-72
2022/08/14 03:34:59;;;;;;;14.33;10.10;;;;;;;;;;5085709;28;20222;-71
2022/08/14 03:37:26;;;;;;;14.50;10.23;;;;;;;;;;5088034;28;20241;-72
2022/08/14 03:39:55;;;;;;;17.37;10.67;;;;;;;;;;5092354;28;20249;-72
2022/08/14 03:42:22;;;;;;;17.87;10.50;;;;;;;;;;5092203;28;20204;-71
2022/08/14 03:44:50;;;;;;;19.60;11.37;;;;;;;;;;5092124;28;20201;-71
2022/08/14 03:47:18;;;;;;;16.73;9.67;;;;;;;;;;5093754;28;20286;-71
2022/08/14 03:49:47;;;;;;;15.93;10.93;;;;;;;;;;5090950;28;20209;-72
2022/08/14 03:52:14;;;;;;;15.17;10.70;;;;;;;;;;5095752;28;20683;-70
2022/08/14 03:54:42;;;;;;;14.50;10.20;;;;;;;;;;5091874;28;20249;-72
2022/08/14 03:57:10;;;;;;;15.80;10.03;;;;;;;;;;5092196;28;20218;-68
2022/08/14 03:59:38;;;;;;;17.23;10.53;;;;;;;;;;5093064;28;20198;-69
2022/08/14 04:02:05;;;;;;;15.93;10.30;;;;;;;;;;5088473;28;21029;-71
2022/08/14 04:04:32;;;;;;;15.00;10.57;;;;;;;;;;5089948;28;20205;-71
2022/08/14 04:06:59;;;;;;;14.73;10.27;;;;;;;;;;5088176;28;20218;-71
2022/08/14 04:09:27;;;;;;;22.33;11.60;;;;;;;;;;5083526;28;20212;-71
2022/08/14 04:11:54;;;;;;;17.67;11.00;;;;;;;;;;5089128;28;20354;-72
2022/08/14 04:14:22;;;;;;;17.23;11.00;;;;;;;;;;5087452;28;20244;-69
2022/08/14 04:16:50;;;;;;;16.63;11.00;;;;;;;;;;5085960;28;20344;-72
2022/08/14 04:19:22;;;;;;;18.90;10.60;;;;;;;;;;5086156;28;20233;-71
2022/08/14 04:21:50;;;;;;;15.27;10.73;;;;;;;;;;5082329;28;20216;-72
2022/08/14 04:24:17;;;;;;;19.40;10.70;;;;;;;;;;5084957;28;20198;-72
2022/08/14 04:26:45;;;;;;;16.67;11.00;;;;;;;;;;5084746;28;20305;-72
2022/08/14 04:29:12;;;;;;;20.60;10.97;;;;;;;;;;5088465;28;20233;-72
2022/08/14 04:31:41;;;;;;;23.57;11.57;;;;;;;;;;5083250;28;20198;-72
2022/08/14 04:34:08;;;;;;;16.23;10.60;;;;;;;;;;5084332;28;20194;-72
2022/08/14 04:43:34;;;;;;;15.80;11.27;;;;;;;;;;5079473;28;20225;-72
2022/08/14 04:44:52;;;;;;;15.20;10.57;;;;;;;;;;5089188;28;20234;-70
2022/08/14 04:50:06;;;;;;;14.27;10.37;;;;;;;;;;5090515;28;20246;-70
2022/08/14 04:52:33;;;;;;;17.07;10.37;;;;;;;;;;5086338;28;20209;-71
2022/08/14 04:55:01;;;;;;;15.97;9.93;;;;;;;;;;5085279;28;20226;-72
2022/08/14 04:57:28;;;;;;;18.03;9.90;;;;;;;;;;5088528;28;20232;-72
2022/08/14 04:59:55;;;;;;;13.87;9.60;;;;;;;;;;5086690;28;20198;-72
2022/08/14 05:02:26;;;;;;;12.67;8.80;;;;;;;;;;5085320;28;20692;-72
2022/08/14 05:04:53;;;;;;;12.70;8.90;;;;;;;;;;5078699;28;20289;-72
2022/08/14 05:07:20;;;;;;;10.63;8.20;;;;;;;;;;5088652;28;20304;-72
2022/08/14 05:09:47;;;;;;;12.83;8.63;;;;;;;;;;5089938;28;20204;-72
2022/08/14 05:12:15;;;;;;;11.47;8.40;;;;;;;;;;5094584;28;20206;-72
2022/08/14 05:14:42;;;;;;;10.63;8.40;;;;;;;;;;5087110;28;20218;-70
2022/08/14 05:17:09;;;;;;;14.13;8.60;;;;;;;;;;5086421;28;20225;-73
2022/08/14 05:19:37;;;;;;;12.80;8.70;;;;;;;;;;5088234;28;20221;-71
2022/08/14 05:22:05;;;;;;;13.07;8.57;;;;;;;;;;5089907;28;20281;-71
2022/08/14 05:24:32;;;;;;;12.03;8.03;;;;;;;;;;5087511;28;20661;-71
2022/08/14 05:26:59;;;;;;;13.07;8.30;;;;;;;;;;5086369;28;20271;-72
2022/08/14 05:29:27;;;;;;;12.83;8.13;;;;;;;;;;5086305;28;20240;-72
2022/08/14 05:31:56;;;;;;;11.33;8.40;;;;;;;;;;5088129;28;20209;-73
2022/08/14 05:34:28;;;;;;;11.27;8.47;;;;;;;;;;5081676;28;20205;-72
2022/08/14 05:36:57;;;;;;;12.33;8.70;;;;;;;;;;5082553;28;20226;-73
2022/08/14 05:39:24;;;;;;;12.67;8.77;;;;;;;;;;5086719;28;20237;-73
2022/08/14 05:41:51;;;;;;;15.10;9.87;;;;;;;;;;5084580;28;20695;-72
2022/08/14 05:44:19;;;;;;;12.87;9.17;;;;;;;;;;5086864;28;20216;-72
2022/08/14 05:46:46;;;;;;;12.10;9.13;;;;;;;;;;5082670;28;20209;-72
2022/08/14 05:49:13;;;;;;;12.97;9.00;;;;;;;;;;5087031;28;20201;-71
2022/08/14 05:51:40;;;;;;;14.80;9.30;;;;;;;;;;5080974;28;20298;-73
2022/08/14 05:54:09;;;;;;;15.17;9.50;;;;;;;;;;5082967;28;20206;-72
2022/08/14 05:56:36;;;;;;;12.80;9.77;;;;;;;;;;5080663;28;20225;-73
2022/08/14 05:59:04;;;;;;;14.17;9.90;;;;;;;;;;5084801;28;20301;-72
2022/08/14 06:01:31;;;;;;;16.87;9.47;;;;;;;;;;5082474;28;20227;-71
2022/08/14 06:03:58;;;;;;;13.27;9.73;;;;;;;;;;5081528;28;20205;-73
2022/08/14 06:06:25;;;;;;;14.87;9.77;;;;;;;;;;5079986;28;20194;-72
2022/08/14 06:08:52;;;;;;;13.70;9.77;;;;;;;;;;5080161;28;20657;-72
2022/08/14 06:11:21;;;;;;;12.67;9.80;;;;;;;;;;5082693;28;20209;-72
2022/08/14 06:13:48;;;;;;;14.00;9.97;;;;;;;;;;5081628;28;20210;-72
2022/08/14 06:16:16;;;;;;;15.30;9.63;;;;;;;;;;5078693;28;20321;-73
2022/08/14 06:18:43;;;;;;;13.13;9.70;;;;;;;;;;5079387;28;20230;-73
2022/08/14 06:21:10;;;;;;;15.00;9.90;;;;;;;;;;5079242;28;20194;-73
2022/08/14 06:23:38;;;;;;;16.23;9.50;;;;;;;;;;5075412;28;20202;-72
2022/08/14 06:26:05;;;;;;;13.53;9.80;;;;;;;;;;5082837;28;20232;-73
2022/08/14 06:28:33;;;;;;;11.03;8.87;;;;;;;;;;5079790;28;20249;-71
2022/08/14 06:31:00;;;;;;;13.03;9.27;;;;;;;;;;5082066;28;20202;-72
2022/08/14 06:33:28;;;;;;;13.27;9.37;;;;;;;;;;5078294;28;20297;-73
2022/08/14 06:35:55;;;;;;;12.90;9.10;;;;;;;;;;5075832;28;20210;-73
2022/08/14 06:38:23;;;;;;;13.37;8.80;;;;;;;;;;5078569;28;20214;-71
2022/08/14 06:40:51;;;;;;;10.97;8.73;;;;;;;;;;5079568;28;21778;-72
2022/08/14 06:43:19;;;;;;;10.20;8.67;;;;;;;;;;5080861;28;20204;-72
2022/08/14 06:45:48;;;;;;;12.83;9.40;;;;;;;;;;5081869;28;20199;-73
2022/08/14 06:48:16;;;;;;;11.97;8.70;;;;;;;;;;5085705;28;20229;-73
2022/08/14 06:50:44;;;;;;;11.33;8.70;;;;;;;;;;5083597;28;20241;-71
2022/08/14 06:53:13;;;;;;;12.73;9.33;;;;;;;;;;5084854;28;20296;-72
2022/08/14 06:55:41;;;;;;;12.60;8.20;;;;;;;;;;5081462;28;20226;-73
2022/08/14 06:58:11;;;;;;;11.90;8.33;;;;;;;;;;5084700;28;20272;-73
2022/08/14 07:00:38;;;;;;;13.13;8.40;;;;;;;;;;5082815;28;20210;-73
2022/08/14 07:05:51;;;;;;;10.33;8.00;;;;;;;;;;5078128;28;20689;-73
2022/08/14 07:08:19;;;;;;;9.87;7.43;;;;;;;;;;5086615;28;20222;-73
2022/08/14 07:10:47;;;;;;;10.47;7.97;;;;;;;;;;5082094;28;20298;-73
2022/08/14 07:13:17;;;;;;;9.07;7.37;;;;;;;;;;5079390;28;20227;-73
2022/08/14 07:15:46;;;;;;;11.63;8.03;;;;;;;;;;5077962;28;20245;-72
2022/08/14 07:18:14;;;;;;;8.30;7.03;;;;;;;;;;5084108;28;20272;-73
2022/08/14 07:20:43;;;;;;;13.23;7.57;;;;;;;;;;5081956;28;20297;-72
2022/08/14 07:23:10;;;;;;;11.50;7.80;;;;;;;;;;5081460;28;20622;-72
2022/08/14 07:25:38;;;;;;;11.03;6.77;;;;;;;;;;5076965;28;20199;-72
2022/08/14 07:28:09;;;;;;;13.77;6.78;;;;;;;;;;5081892;28;20243;-71
2022/08/14 07:30:37;;;;;;;8.80;6.60;;;;;;;;;;5081241;28;20202;-73
2022/08/14 07:33:04;;;;;;;7.55;6.15;;;;;;;;;;5081735;28;20294;-72
2022/08/14 07:35:33;;;;;;;10.70;6.40;;;;;;;;;;5085174;28;20301;-71
2022/08/14 07:38:00;;;;;;;9.95;6.43;;;;;;;;;;5082584;28;20301;-72
2022/08/14 07:40:27;;;;;;;8.45;6.22;;;;;;;;;;5079858;28;20203;-71
2022/08/14 07:42:54;;;;;;;7.63;5.90;;;;;;;;;;5077047;28;20671;-73
2022/08/14 07:45:22;;;;;;;8.30;6.18;;;;;;;;;;5080688;28;20285;-73
2022/08/14 07:47:50;;;;;;;9.65;6.30;;;;;;;;;;5081420;28;20241;-72
2022/08/14 07:50:18;;;;;;;7.75;6.03;;;;;;;;;;5083859;28;20213;-72
2022/08/14 07:52:49;;;;;;;8.07;5.82;;;;;;;;;;5079223;28;20198;-72
2022/08/14 07:55:17;;;;;;;8.75;5.80;;;;;;;;;;5079543;28;20207;-73
2022/08/14 07:57:45;;;;;;;7.72;6.40;;;;;;;;;;5079712;28;20225;-73
2022/08/14 08:00:13;;;;;;;7.15;5.50;;;;;;;;;;5081930;28;20198;-73
2022/08/14 08:02:41;;;;;;;7.47;5.68;;;;;;;;;;5079821;28;20201;-73
2022/08/14 08:05:09;;;;;;;5.95;5.35;;;;;;;;;;5080001;28;20595;-72
2022/08/14 08:07:37;;;;;;;7.35;5.95;;;;;;;;;;5081313;28;20221;-72
2022/08/14 08:10:29;;;;;;;7.40;5.93;;;;;;;;;;5078430;28;20203;-73
2022/08/14 08:12:57;;;;;;;7.22;5.82;;;;;;;;;;5082323;28;20206;-72
2022/08/14 08:15:25;;;;;;;7.60;5.30;;;;;;;;;;5078221;28;20214;-73
2022/08/14 08:17:52;;;;;;;6.55;5.72;;;;;;;;;;5077601;28;20307;-72
2022/08/14 08:20:20;;;;;;;6.50;5.80;;;;;;;;;;5082429;28;20217;-73
2022/08/14 08:22:47;;;;;;;6.15;5.43;;;;;;;;;;5079624;28;20207;-73
2022/08/14 08:25:16;;;;;;;10.38;5.50;;;;;;;;;;5079605;28;20270;-72
2022/08/14 08:27:43;;;;;;;7.10;5.35;;;;;;;;;;5083021;28;20768;-73
2022/08/14 08:30:11;;;;;;;8.35;5.80;;;;;;;;;;5083136;28;20207;-72
2022/08/14 08:32:39;;;;;;;8.88;5.50;;;;;;;;;;5080905;28;20570;-74
2022/08/14 08:35:10;;;;;;;10.20;5.60;;;;;;;;;;5076446;28;20202;-73
2022/08/14 08:37:37;;;;;;;8.90;6.05;;;;;;;;;;5081142;28;20234;-71
2022/08/14 08:40:05;;;;;;;8.27;5.35;;;;;;;;;;5081298;28;20587;-73
2022/08/14 08:42:33;;;;;;;8.53;5.87;;;;;;;;;;5081691;28;20210;-68
2022/08/14 08:45:00;;;;;;;6.53;5.63;;;;;;;;;;5075881;28;20198;-72
2022/08/14 08:47:38;;;;;;;8.47;6.17;;;;;;;;;;5074424;28;20225;-73
2022/08/14 08:50:17;;;;;;;7.27;5.70;;;;;;;;;;5084456;28;20432;-71
2022/08/14 08:52:48;;;;;;;7.77;6.13;;;;;;;;;;5072811;28;20250;-72
2022/08/14 08:55:15;;;;;;;9.40;5.90;;;;;;;;;;5077765;28;20196;-69
2022/08/14 08:57:43;;;;;;;10.43;6.90;;;;;;;;;;5082221;28;20506;-72
2022/08/14 09:00:16;;;;;;;9.30;6.73;;;;;;;;;;5087042;28;20206;-72
2022/08/14 09:02:43;;;;;;;8.60;6.47;;;;;;;;;;5086478;28;20205;-73
2022/08/14 09:05:10;;;;;;;9.00;6.33;;;;;;;;;;5088772;28;20265;-73
2022/08/14 09:07:37;;;;;;;9.13;6.40;;;;;;;;;;5082120;28;20222;-72
2022/08/14 09:10:05;;;;;;;7.30;6.07;;;;;;;;;;5086877;28;20202;-71
2022/08/14 09:12:34;;;;;;;7.93;5.57;;;;;;;;;;5086737;28;20653;-73
2022/08/14 09:15:03;;;;;;;7.63;5.83;;;;;;;;;;5082816;28;20214;-73
2022/08/14 09:17:31;;;;;;;11.27;5.40;;;;;;;;;;5084963;28;20680;-72
2022/08/14 09:19:58;;;;;;;5.83;4.70;;;;;;;;;;5087270;28;20209;-72
2022/08/14 09:22:26;;;;;;;6.33;5.20;;;;;;;;;;5082058;28;20205;-72
2022/08/14 09:24:53;;;;;;;5.77;4.60;;;;;;;;;;5084704;28;20300;-73
2022/08/14 09:27:20;;;;;;;6.70;5.10;;;;;;;;;;5087694;28;20291;-72
2022/08/14 09:29:48;;;;;;;6.77;5.00;;;;;;;;;;5082467;28;20687;-72
2022/08/14 09:32:21;;;;;;;8.20;4.50;;;;;;;;;;5080444;28;20581;-73
2022/08/14 09:34:51;;;;;;;5.27;4.20;;;;;;;;;;5084374;28;20267;-71
2022/08/14 09:37:26;;;;;;;7.73;4.10;;;;;;;;;;5081486;28;20230;-72
2022/08/14 09:40:00;;;;;;;5.60;4.23;;;;;;;;;;5085727;28;20211;-72
2022/08/14 09:42:35;;;;;;;7.03;4.47;;;;;;;;;;5082885;28;20202;-69
2022/08/14 09:45:09;;;;;;;5.80;4.30;;;;;;;;;;5081591;28;20221;-72
2022/08/14 09:47:48;;;;;;;7.10;4.37;;;;;;;;;;5087058;28;20305;-69
2022/08/14 09:50:16;;;;;;;6.03;4.50;;;;;;;;;;5083255;28;20717;-71
2022/08/14 09:52:47;;;;;;;8.03;4.70;;;;;;;;;;5083363;28;20208;-70
2022/08/14 09:55:18;;;;;;;6.97;4.33;;;;;;;;;;5083082;28;20297;-72
2022/08/14 09:57:45;;;;;;;7.17;4.87;;;;;;;;;;5084483;28;20233;-72
2022/08/14 10:00:15;;;;;;;7.53;4.50;;;;;;;;;;5083614;28;20208;-72
2022/08/14 10:02:53;;;;;;;5.67;4.80;;;;;;;;;;5081036;28;20205;-72
2022/08/14 10:05:29;;;;;;;5.37;4.40;;;;;;;;;;5082909;28;20312;-71
2022/08/14 10:07:57;;;;;;;8.53;4.70;;;;;;;;;;5088930;28;20218;-72
2022/08/14 10:10:28;;;;;;;7.50;4.67;;;;;;;;;;5083779;28;20213;-72
2022/08/14 10:12:56;;;;;;;8.63;4.40;;;;;;;;;;5080054;28;20642;-72
2022/08/14 10:15:24;;;;;;;5.23;4.50;;;;;;;;;;5083466;28;20212;-72
2022/08/14 10:18:08;;;;;;;5.20;4.53;;;;;;;;;;5084211;28;20609;-72
2022/08/14 10:20:38;;;;;;;5.67;4.57;;;;;;;;;;5083699;28;20751;-72
2022/08/14 10:23:15;;;;;;;8.27;4.63;;;;;;;;;;5083019;28;20660;-72
2022/08/14 10:25:44;;;;;;;5.93;4.87;;;;;;;;;;5084450;28;20209;-72
2022/08/14 10:28:14;;;;;;;9.97;4.50;;;;;;;;;;5088430;28;20220;-72
2022/08/14 10:30:41;;;;;;;7.13;4.43;;;;;;;;;;5083219;28;20194;-72
2022/08/14 10:33:10;;;;;;;6.00;4.90;;;;;;;;;;5087955;28;20208;-72
2022/08/14 10:35:41;;;;;;;6.07;5.00;;;;;;;;;;5086478;28;20739;-72
2022/08/14 10:38:09;;;;;;;6.70;5.10;;;;;;;;;;5087216;28;20229;-72
2022/08/14 10:40:36;;;;;;;6.13;4.87;;;;;;;;;;5085731;28;20194;-72
2022/08/14 10:43:05;;;;;;;13.10;11.00;;;;;;;;;;5086809;28;20715;-72
2022/08/14 10:45:33;;;;;;;10.87;7.63;;;;;;;;;;5086400;28;20209;-72
2022/08/14 10:48:01;;;;;;;5.50;4.97;;;;;;;;;;5085557;28;20218;-72
2022/08/14 10:50:33;;;;;;;12.70;9.23;;;;;;;;;;5084361;28;20198;-72
2022/08/14 10:53:04;;;;;;;8.20;5.70;;;;;;;;;;5082568;28;20206;-72
2022/08/14 10:55:38;;;;;;;6.70;4.63;;;;;;;;;;5083267;28;20197;-73
2022/08/14 10:58:09;;;;;;;5.50;4.77;;;;;;;;;;5083061;28;20307;-72
2022/08/14 11:00:38;;;;;;;6.00;4.60;;;;;;;;;;5084026;28;20295;-72
2022/08/14 11:03:08;;;;;;;5.53;4.47;;;;;;;;;;5085662;28;20230;-72
2022/08/14 11:05:41;;;;;;;4.93;4.07;;;;;;;;;;5084779;28;20220;-72
2022/08/14 11:08:09;;;;;;;4.50;3.93;;;;;;;;;;5080558;28;20226;-72
2022/08/14 11:10:40;;;;;;;5.03;4.27;;;;;;;;;;5084352;28;20292;-72
2022/08/14 11:13:08;;;;;;;5.63;4.10;;;;;;;;;;5081223;28;20226;-72
2022/08/14 11:15:35;;;;;;;7.50;4.77;;;;;;;;;;5079845;28;20216;-72
2022/08/14 11:18:04;;;;;;;7.53;4.90;;;;;;;;;;5087405;28;20312;-72
2022/08/14 11:20:32;;;;;;;5.07;4.13;;;;;;;;;;5086396;28;20582;-72
2022/08/14 11:23:01;;;;;;;5.43;4.30;;;;;;;;;;5085600;28;20216;-72
2022/08/14 11:25:30;;;;;;;5.23;4.20;;;;;;;;;;5084661;28;20201;-72
2022/08/14 11:27:58;;;;;;;6.13;4.30;;;;;;;;;;5085722;28;20234;-72
2022/08/14 11:30:26;;;;;;;7.53;4.30;;;;;;;;;;5086191;28;20228;-72
2022/08/14 11:32:54;;;;;;;9.10;4.40;;;;;;;;;;5085266;28;20267;-72
2022/08/14 11:35:22;;;;;;;7.60;4.30;;;;;;;;;;5083252;28;20217;-72
2022/08/14 11:37:50;;;;;;;5.30;4.43;;;;;;;;;;5081274;28;20214;-72
2022/08/14 11:40:19;;;;;;;10.70;4.20;;;;;;;;;;5083180;28;20209;-72
2022/08/14 11:42:47;;;;;;;5.10;4.30;;;;;;;;;;5076303;28;20216;-73
2022/08/14 11:45:15;;;;;;;6.70;4.73;;;;;;;;;;5071826;28;20217;-72
2022/08/14 11:47:42;;;;;;;7.30;4.40;;;;;;;;;;5073400;28;20221;-71
2022/08/14 11:50:14;;;;;;;5.93;4.77;;;;;;;;;;5075428;28;20202;-71
2022/08/14 11:52:41;;;;;;;5.87;4.73;;;;;;;;;;5076392;28;20203;-71
2022/08/14 11:55:10;;;;;;;4.93;4.20;;;;;;;;;;5077149;28;20682;-71
2022/08/14 11:57:38;;;;;;;5.10;4.33;;;;;;;;;;5080490;28;20222;-71
2022/08/14 12:00:08;;;;;;;5.83;4.73;;;;;;;;;;5079336;28;20205;-71
2022/08/14 12:02:35;;;;;;;6.60;4.47;;;;;;;;;;5081063;28;20249;-71
2022/08/14 12:05:05;;;;;;;5.07;4.40;;;;;;;;;;5078228;28;20209;-71
2022/08/14 12:07:32;;;;;;;5.57;4.50;;;;;;;;;;5083043;28;20328;-71
2022/08/14 12:10:00;;;;;;;5.70;4.60;;;;;;;;;;5081408;28;20206;-71
2022/08/14 12:12:31;;;;;;;4.80;3.93;;;;;;;;;;5076995;28;20257;-71
2022/08/14 12:15:00;;;;;;;7.23;4.63;;;;;;;;;;5075586;28;20213;-71
2022/08/14 12:17:28;;;;;;;5.63;4.53;;;;;;;;;;5080793;28;20233;-71
2022/08/14 12:19:57;;;;;;;8.33;4.37;;;;;;;;;;5079608;28;20202;-71
2022/08/14 12:22:34;;;;;;;7.40;4.30;;;;;;;;;;5082221;28;20318;-70
2022/08/14 12:25:02;;;;;;;6.77;4.10;;;;;;;;;;5079192;28;20284;-71
2022/08/14 12:27:36;;;;;;;5.47;4.00;;;;;;;;;;5079596;28;20219;-71
2022/08/14 12:30:05;;;;;;;4.40;3.67;;;;;;;;;;5081567;28;20201;-71
2022/08/14 12:32:39;;;;;;;6.30;3.80;;;;;;;;;;5079046;28;20221;-71
2022/08/14 12:35:08;;;;;;;3.50;3.20;;;;;;;;;;5075751;28;20194;-71
2022/08/14 12:37:35;;;;;;;4.63;3.53;;;;;;;;;;5071419;28;20672;-71
2022/08/14 12:40:09;;;;;;;5.23;3.60;;;;;;;;;;5071603;28;20205;-71
2022/08/14 12:42:37;;;;;;;5.43;3.23;;;;;;;;;;5074328;28;20194;-71
2022/08/14 12:45:06;;;;;;;5.97;3.80;;;;;;;;;;5069032;28;20230;-71
2022/08/14 12:47:33;;;;;;;3.60;3.13;;;;;;;;;;5077946;28;20218;-71
2022/08/14 12:50:02;;;;;;;9.97;3.60;;;;;;;;;;5078873;28;20478;-70
2022/08/14 12:52:30;;;;;;;5.10;3.20;;;;;;;;;;5079283;28;20206;-71
2022/08/14 12:54:59;;;;;;;4.47;3.20;;;;;;;;;;5078591;28;20199;-71
2022/08/14 12:57:33;;;;;;;5.23;3.27;;;;;;;;;;5076678;28;20348;-71
2022/08/14 13:00:07;;;;;;;3.30;3.00;;;;;;;;;;5076165;28;20210;-71
2022/08/14 13:02:37;;;;;;;4.93;3.37;;;;;;;;;;5076599;28;20616;-71
2022/08/14 13:05:05;;;;;;;3.20;2.90;;;;;;;;;;5075689;28;20678;-71
2022/08/14 13:07:32;;;;;;;5.00;2.80;;;;;;;;;;5073059;28;20219;-71
2022/08/14 13:09:59;;;;;;;3.23;2.63;;;;;;;;;;5075554;28;20218;-71
2022/08/14 13:12:28;;;;;;;4.00;3.23;;;;;;;;;;5076720;28;20210;-71
2022/08/14 13:14:58;;;;;;;4.17;3.50;;;;;;;;;;5074507;28;20309;-71
2022/08/14 13:17:26;;;;;;;3.80;3.20;;;;;;;;;;5075875;28;20227;-71
2022/08/14 13:19:56;;;;;;;3.50;2.90;;;;;;;;;;5074901;28;20199;-71
2022/08/14 13:22:26;;;;;;;4.23;3.60;;;;;;;;;;5072273;28;20201;-71
2022/08/14 13:24:54;;;;;;;4.13;3.40;;;;;;;;;;5076777;28;20202;-71
2022/08/14 13:27:22;;;;;;;4.60;3.70;;;;;;;;;;5074431;28;20312;-71
2022/08/14 13:29:51;;;;;;;4.83;2.93;;;;;;;;;;5074737;28;20216;-71
2022/08/14 13:32:18;;;;;;;5.93;3.73;;;;;;;;;;5071488;28;20210;-71
2022/08/14 13:34:48;;;;;;;4.00;3.30;;;;;;;;;;5073998;28;20201;-71
2022/08/14 13:37:15;;;;;;;3.40;3.10;;;;;;;;;;5077083;28;20670;-71
2022/08/14 13:39:47;;;;;;;3.20;2.90;;;;;;;;;;5076519;28;20311;-71
2022/08/14 13:42:15;;;;;;;6.33;3.20;;;;;;;;;;5069059;28;20948;-71
2022/08/14 13:44:43;;;;;;;3.83;3.30;;;;;;;;;;5068037;28;20752;-71
2022/08/14 13:47:10;;;;;;;4.33;3.43;;;;;;;;;;5073288;28;20252;-71
2022/08/14 13:49:38;;;;;;;5.43;3.37;;;;;;;;;;5066553;28;20597;-70
2022/08/14 13:52:11;;;;;;;4.20;3.43;;;;;;;;;;5067634;28;20211;-71
2022/08/14 13:54:39;;;;;;;4.30;3.40;;;;;;;;;;5078718;28;20199;-71
2022/08/14 13:57:09;;;;;;;4.43;3.60;;;;;;;;;;5079141;28;20223;-71
2022/08/14 13:59:37;;;;;;;4.57;3.60;;;;;;;;;;5082788;28;20229;-71
2022/08/14 14:02:05;;;;;;;5.30;3.20;;;;;;;;;;5082365;28;20208;-71
2022/08/14 14:04:32;;;;;;;4.27;3.30;;;;;;;;;;5085349;28;20201;-71
2022/08/14 14:07:02;;;;;;;6.27;3.57;;;;;;;;;;5082956;28;20660;-71
2022/08/14 14:09:32;;;;;;;3.90;3.23;;;;;;;;;;5084663;28;20251;-71
2022/08/14 14:11:59;;;;;;;5.63;3.33;;;;;;;;;;5081705;28;20239;-71
2022/08/14 14:14:28;;;;;;;3.90;3.40;;;;;;;;;;5082890;28;20301;-72
2022/08/14 14:16:55;;;;;;;7.07;3.30;;;;;;;;;;5083117;28;20304;-71
2022/08/14 14:19:24;;;;;;;3.57;3.03;;;;;;;;;;5084000;28;20310;-71
2022/08/14 14:21:54;;;;;;;4.70;3.00;;;;;;;;;;5082797;28;20199;-71
2022/08/14 14:24:21;;;;;;;3.17;2.67;;;;;;;;;;5085638;28;20234;-71
2022/08/14 14:26:50;;;;;;;2.73;2.47;;;;;;;;;;5084184;28;20222;-71
2022/08/14 14:29:19;;;;;;;3.00;2.63;;;;;;;;;;5083948;28;20211;-71
2022/08/14 14:31:48;;;;;;;3.77;3.00;;;;;;;;;;5086465;28;20202;-71
2022/08/14 14:34:17;;;;;;;3.50;2.93;;;;;;;;;;5080594;28;20208;-71
2022/08/14 14:36:44;;;;;;;3.50;2.90;;;;;;;;;;5084042;28;20220;-71
2022/08/14 14:39:12;;;;;;;3.73;2.63;;;;;;;;;;5077189;28;20235;-71
2022/08/14 14:41:40;;;;;;;3.63;2.93;;;;;;;;;;5085033;28;20239;-71
2022/08/14 14:44:10;;;;;;;3.40;2.97;;;;;;;;;;5083689;28;20206;-70
2022/08/14 14:46:39;;;;;;;3.80;3.00;;;;;;;;;;5086058;28;20204;-71
2022/08/14 14:49:12;;;;;;;5.00;3.20;;;;;;;;;;5083058;28;20304;-71
2022/08/14 14:51:40;;;;;;;4.23;3.20;;;;;;;;;;5082579;28;20249;-71
2022/08/14 14:54:08;;;;;;;3.93;2.83;;;;;;;;;;5081696;28;20212;-71
2022/08/14 14:56:35;;;;;;;4.10;3.20;;;;;;;;;;5086457;28;20676;-71
2022/08/14 14:59:02;;;;;;;5.10;3.00;;;;;;;;;;5083282;28;20715;-71